Flight Track Log - Related Links

Times and Time Zones

All times are in EDT time to prevent confusion due to time zone crossing. See the OPT452 flight status page for this flight to view local times or setup timezone preferences in your user account.

Time Position Orientation Groundspeed Altitude Reporting Facility
EDT Latitude Longitude Course Direction KTS MPH feet Rate Location/Type
Tue 10:43:40 AM 36.7128 -101.4658 87° East 205 236 6,300  Level Kansas City Center
Tue 10:44:42 AM 36.7167 -101.3819 87° East 216 249 9,000 2,164 Climbing Kansas City Center
Tue 10:45:42 AM 36.7169 -101.3003 90° East 231 266 10,700 2,177 Climbing Kansas City Center
Tue 10:46:46 AM 36.7200 -101.1781 88° East 296 341 13,500 2,457 Climbing Kansas City Center
Tue 10:47:49 AM 36.7217 -101.0714 89° East 317 365 15,900 2,371 Climbing Kansas City Center
Tue 10:48:50 AM 36.7253 -100.9617 88° East 328 377 18,400 2,628 Climbing Kansas City Center
Tue 10:49:50 AM 36.7281 -100.8331 88° East 334 384 21,200 2,371 Climbing Kansas City Center
Tue 10:50:54 AM 36.7292 -100.7258 89° East 328 377 23,300 2,129 Climbing Kansas City Center
Tue 10:51:54 AM 36.7308 -100.5992 89° East 327 376 25,600 1,872 Climbing Kansas City Center
Tue 10:52:59 AM 36.7322 -100.4867 89° East 335 386 27,200 1,571 Climbing Kansas City Center
Tue 10:54:00 AM 36.7356 -100.3483 88° East 353 406 28,900 1,377 Climbing Kansas City Center
Tue 10:55:01 AM 36.7367 -100.2250 89° East 366 421 30,000 1,008 Climbing Kansas City Center
Tue 10:56:05 AM 36.7386 -100.0875 89° East 384 442 31,000 960 Climbing Kansas City Center
Tue 10:57:06 AM 36.7406 -99.9444 89° East 402 463 32,000 1,082 Climbing Kansas City Center
Tue 10:58:07 AM 36.7425 -99.7686 89° East 416 479 33,200 1,065 Climbing Kansas City Center
Tue 10:59:10 AM 36.7453 -99.6158 89° East 429 494 34,200 871 Climbing Kansas City Center
Tue 11:00:11 AM 36.7461 -99.4656 90° East 432 497 35,000 390 Climbing Kansas City Center
Tue 11:01:13 AM 36.7469 -99.3058 90° East 449 517 35,000  Level Kansas City Center
Tue 11:02:16 AM 36.7500 -99.1436 89° East 460 529 35,000  Level Kansas City Center
Tue 11:03:17 AM 36.7506 -98.9803 90° East 467 537 35,000  Level Kansas City Center
Tue 11:04:21 AM 36.7508 -98.8192 90° East 464 534 35,000  Level Kansas City Center
Tue 11:05:21 AM 36.7519 -98.6536 89° East 471 542 35,000 787 Level Kansas City Center
Tue 11:06:23 AM 36.7528 -98.4611 90° East 464 534 36,600 1,000 Climbing Kansas City Center
Tue 11:07:27 AM 36.7525 -98.3108 90° East 444 511 37,100 581 Climbing Kansas City Center
Tue 11:08:27 AM 36.7528 -98.1592 90° East 438 504 37,800 629 Climbing Kansas City Center
Tue 11:09:31 AM 36.7511 -98.0094 91° East 433 498 38,400 528 Climbing Kansas City Center
Tue 11:10:32 AM 36.7450 -97.8644 93° East 424 488 38,900 480 Climbing Kansas City Center
Tue 11:11:36 AM 36.7158 -97.7128 103° East 412 474 39,400 480 Climbing Kansas City Center
Tue 11:12:37 AM 36.6897 -97.5708 103° East 417 480 39,900 492 Climbing Kansas City Center
Tue 11:13:38 AM 36.6644 -97.4278 102° East 422 486 40,400 541 Climbing Kansas City Center
Tue 11:14:39 AM 36.6325 -97.2625 103° East 426 490 41,000 288 Climbing Kansas City Center
Tue 11:15:43 AM 36.6067 -97.1178 102° East 427 491 41,000  Level Kansas City Center
Tue 11:16:44 AM 36.5789 -96.9731 103° East 429 494 41,000  Level Kansas City Center
Tue 11:17:47 AM 36.5494 -96.8192 103° East 449 517 41,000  Level Kansas City Center
Tue 11:18:48 AM 36.5153 -96.6450 104° East 462 532 41,000  Level Kansas City Center
Tue 11:19:52 AM 36.4839 -96.4864 104° East 469 540 41,000  Level Kansas City Center
Tue 11:20:53 AM 36.4531 -96.3264 103° East 475 547 41,000  Level Kansas City Center
Tue 11:21:54 AM 36.4219 -96.1711 104° East 467 537 41,000  Level Kansas City Center
Tue 11:22:57 AM 36.3922 -96.0200 104° East 457 526 41,000  Level Kansas City Center
Tue 11:23:59 AM 36.3614 -95.8669 104° East 457 526 41,000  Level Kansas City Center
Tue 11:25:02 AM 36.3275 -95.6992 104° East 457 526 41,000  Level Kansas City Center
Tue 11:26:04 AM 36.2961 -95.5450 104° East 460 529 41,000  Level Kansas City Center
Tue 11:27:04 AM 36.2636 -95.3903 105° East 464 534 41,000  Level Kansas City Center
Tue 11:28:08 AM 36.2261 -95.2039 104° East 466 536 41,000  Level Kansas City Center
Tue 11:29:09 AM 36.1944 -95.0486 104° East 456 525 41,000  Level Kansas City Center
Tue 11:30:11 AM 36.1636 -94.8992 104° East 451 519 41,000  Level Kansas City Center
Tue 11:31:14 AM 36.1331 -94.7528 104° East 443 510 41,000  Level Kansas City Center
Tue 11:31:56 AM 36.1061 -94.6369 106° East 444 511 41,000  Level Memphis Center
Tue 11:32:56 AM 36.0756 -94.4914 105° East 444 511 41,000  Level Memphis Center
Tue 11:33:56 AM 36.0447 -94.3489 105° East 439 505 41,000  Level Memphis Center
Tue 11:34:56 AM 36.0139 -94.2036 105° East 439 505 41,000  Level Memphis Center
Tue 11:35:56 AM 35.9828 -94.0611 105° East 439 505 41,000  Level Memphis Center
Tue 11:36:56 AM 35.9553 -93.9342 105° East 439 505 41,000  Level Memphis Center
Tue 11:37:56 AM 35.9236 -93.7919 105° East 434 499 41,000  Level Memphis Center
Tue 11:38:56 AM 35.8922 -93.6497 105° East 428 493 41,000  Level Memphis Center
Tue 11:39:56 AM 35.8603 -93.5100 106° East 428 493 41,000  Level Memphis Center
Tue 11:40:56 AM 35.8306 -93.3681 104° East 423 487 41,000  Level Memphis Center
Tue 11:41:56 AM 35.7964 -93.2236 106° East 423 487 41,000  Level Memphis Center
Tue 11:42:56 AM 35.7661 -93.0842 105° East 423 487 41,000  Level Memphis Center
Tue 11:43:56 AM 35.7317 -92.9375 106° East 423 487 41,000  Level Memphis Center
Tue 11:44:56 AM 35.6972 -92.7778 105° East 428 493 41,000  Level Memphis Center
Tue 11:45:56 AM 35.6625 -92.6336 106° East 438 504 41,000  Level Memphis Center
Tue 11:46:56 AM 35.6275 -92.4847 106° East 438 504 41,000  Level Memphis Center
Tue 11:47:56 AM 35.5944 -92.3433 106° East 438 504 41,000  Level Memphis Center
Tue 11:48:56 AM 35.5592 -92.1969 106° East 438 504 41,000  Level Memphis Center
Tue 11:49:56 AM 35.5258 -92.0508 106° East 444 511 41,000  Level Memphis Center
Tue 11:50:56 AM 35.4922 -91.9050 106° East 444 511 41,000  Level Memphis Center
Tue 11:51:56 AM 35.4583 -91.7589 106° East 444 511 41,000  Level Memphis Center
Tue 11:52:56 AM 35.4225 -91.6156 107° East 444 511 41,000  Level Memphis Center
Tue 11:53:56 AM 35.3864 -91.4675 107° East 444 511 41,000  Level Memphis Center
Tue 11:54:56 AM 35.3519 -91.3219 106° East 444 511 41,000  Level Memphis Center
Tue 11:55:56 AM 35.3156 -91.1739 107° East 444 511 41,000  Level Memphis Center
Tue 11:56:56 AM 35.2789 -91.0311 107° East 444 511 41,000  Level Memphis Center
Tue 11:57:56 AM 35.2442 -90.8883 107° East 439 505 41,000  Level Memphis Center
Tue 11:58:56 AM 35.2092 -90.7433 106° East 439 505 41,000  Level Memphis Center
Tue 11:59:56 AM 35.1719 -90.5983 107° East 439 505 41,000  Level Memphis Center
Tue 12:00:56 PM 35.1408 -90.4714 107° East 439 505 41,000  Level Memphis Center
Tue 12:01:56 PM 35.1053 -90.3317 107° East 444 511 41,000  Level Memphis Center
Tue 12:02:56 PM 35.0697 -90.1897 107° East 438 504 41,000  Level Memphis Center
Tue 12:03:56 PM 35.0342 -90.0450 107° East 443 510 41,000  Level Memphis Center
Tue 12:04:56 PM 35.0253 -89.8956 94° East 437 503 41,000  Level Memphis Center
Tue 12:05:56 PM 35.0244 -89.7231 90° East 444 511 41,000  Level Memphis Center
Tue 12:06:56 PM 35.0214 -89.5633 91° East 459 528 41,000  Level Memphis Center
Tue 12:07:56 PM 35.0203 -89.4114 90° East 454 522 41,000  Level Memphis Center
Tue 12:08:56 PM 35.0211 -89.2567 90° East 454 522 41,000  Level Memphis Center
Tue 12:09:56 PM 35.0178 -89.1122 92° East 460 529 41,000  Level Memphis Center
Tue 12:10:56 PM 35.0056 -88.9603 96° East 455 524 41,000  Level Memphis Center
Tue 12:11:56 PM 34.9933 -88.8033 95° East 463 533 41,000  Level Memphis Center
Tue 12:12:56 PM 34.9808 -88.6464 96° East 468 539 41,000  Level Memphis Center
Tue 12:13:56 PM 34.9683 -88.5047 96° East 463 533 41,000 -350 Level Memphis Center
Tue 12:14:56 PM 34.9533 -88.3378 96° East 457 526 40,300 -750 Descending Memphis Center
Tue 12:15:56 PM 34.9403 -88.1836 96° East 462 532 39,500 -800 Descending Memphis Center
Tue 12:16:56 PM 34.9247 -88.0117 96° East 469 540 38,700 -900 Descending Memphis Center
Tue 12:17:56 PM 34.9111 -87.8603 96° East 456 525 37,700 -1,169 Descending Memphis Center
Tue 12:19:30 PM 34.8919 -87.6244 96° East 446 513 35,700 -1,364 Descending Atlanta Center
Tue 12:20:30 PM 34.8778 -87.4669 96° East 451 519 34,200 -1,350 Descending Atlanta Center
Tue 12:21:30 PM 34.8653 -87.3094 95° East 458 527 33,000 -600 Descending Atlanta Center
Tue 12:22:30 PM 34.8483 -87.1569 98° East 458 527 33,000  Level Atlanta Center
Tue 12:23:30 PM 34.8336 -86.9969 96° East 468 539 33,000 -100 Level Atlanta Center
Tue 12:24:30 PM 34.8183 -86.8422 97° East 468 539 32,800 -900 Descending Atlanta Center
Tue 12:25:30 PM 34.8033 -86.6797 96° East 468 539 31,200 -1,600 Descending Atlanta Center
Tue 12:26:30 PM 34.7833 -86.5272 99° East 463 533 29,600 -1,550 Descending Atlanta Center
Tue 12:27:30 PM 34.7592 -86.3800 101° East 457 526 28,100 -1,500 Descending Atlanta Center
Tue 12:28:30 PM 34.7369 -86.2328 100° East 445 512 26,600 -1,500 Descending Atlanta Center
Tue 12:29:30 PM 34.7122 -86.0856 102° East 445 512 25,100 -1,650 Descending Atlanta Center
Tue 12:30:30 PM 34.6917 -85.9361 99° East 445 512 23,300 -2,150 Descending Atlanta Center
Tue 12:31:30 PM 34.6644 -85.8017 104° East 433 498 20,800 -2,250 Descending Atlanta Center
Tue 12:32:30 PM 34.6350 -85.6722 105° East 409 471 18,800 -1,700 Descending Atlanta Center
Tue 12:33:30 PM 34.5800 -85.5678 123° Southeast 377 434 17,400 -1,350 Descending Atlanta Center
Tue 12:34:30 PM 34.5228 -85.4658 124° Southeast 371 427 16,100 -1,300 Descending Atlanta Center
Tue 12:35:30 PM 34.4675 -85.3614 123° Southeast 366 421 14,800 -1,300 Descending Atlanta Center
Tue 12:36:30 PM 34.4144 -85.2600 122° Southeast 360 414 13,500 -1,300 Descending Atlanta Center
Tue 12:37:30 PM 34.3714 -85.1814 124° Southeast 336 387 12,200 -1,250 Descending Atlanta Center
Tue 12:38:30 PM 34.3158 -85.0800 124° Southeast 329 379 11,000 -1,200 Descending Atlanta Center
Tue 12:39:30 PM 34.2664 -84.9889 123° Southeast 329 379 9,800 -1,150 Descending Atlanta Center
Tue 12:40:30 PM 34.2211 -84.9106 125° Southeast 302 348 8,700 -900 Descending Atlanta Center
Tue 12:41:30 PM 34.1714 -84.8447 132° Southeast 282 325 8,000 -800 Descending Atlanta Center
Tue 12:42:30 PM 34.1344 -84.7817 125° Southeast 248 285 7,100 -1,000 Descending Atlanta Center
Tue 12:43:30 PM 34.1139 -84.7111 109° East 226 260 6,000 -1,100 Descending Atlanta Center
Tue 12:44:30 PM 34.0933 -84.6433 110° East 215 247 4,900 -1,000 Descending Atlanta Center
Tue 12:45:30 PM 34.0728 -84.5806 112° Southeast 210 242 4,000 -450 Descending Atlanta Center
Tue 12:46:30 PM 34.0542 -84.5203 110° East 210 242 4,000 -258 Level Atlanta Center
Tue 12:48:59 PM 34.0333 -84.3500 98° East 206 237 3,100 -287 Descending Atlanta TRACON
Tue 12:49:59 PM 34.0000 -84.3000 129° Southeast 191 220 3,000 -300 Descending Atlanta TRACON
Tue 12:50:59 PM 33.9500 -84.2833 165° South 190 219 2,500 -700 Descending Atlanta TRACON
Tue 12:51:59 PM 33.9167 -84.2833 180° South 153 176 1,600 -900 Descending Atlanta TRACON
Tue 12:53:00 PM 33.8756 -84.3020 203° Southwest  Level Estimated
Tue 01:00:00 PM 33.8756 -84.3020 23° Northeast  Level Estimated
Tue 01:01:00 PM 33.8756 -84.3020 23° Northeast  Level Estimated

Login

Don't have an account? Register now (free) for customized features, flight alerts, and more!